sensor_id;sensor_type;location;lat;lon;timestamp;pressure;altitude;pressure_sealevel;temperature;humidity
76998;BME280;65930;48.874;10.734;2023-05-10T00:01:55;95368.38;;;14.01;91.64
76998;BME280;65930;48.874;10.734;2023-05-10T00:04:31;95366.94;;;13.81;92.37
76998;BME280;65930;48.874;10.734;2023-05-10T00:07:01;95364.53;;;13.66;93.72
76998;BME280;65930;48.874;10.734;2023-05-10T00:09:29;95369.63;;;13.84;92.68
76998;BME280;65930;48.874;10.734;2023-05-10T00:11:57;95362.91;;;13.82;92.78
76998;BME280;65930;48.874;10.734;2023-05-10T00:14:26;95362.88;;;13.69;92.86
76998;BME280;65930;48.874;10.734;2023-05-10T00:16:55;95364.44;;;13.70;93.37
76998;BME280;65930;48.874;10.734;2023-05-10T00:19:25;95363.44;;;13.77;93.02
76998;BME280;65930;48.874;10.734;2023-05-10T00:21:53;95356.38;;;13.88;93.40
76998;BME280;65930;48.874;10.734;2023-05-10T00:24:23;95360.38;;;14.03;93.13
76998;BME280;65930;48.874;10.734;2023-05-10T00:26:52;95358.25;;;14.07;92.35
76998;BME280;65930;48.874;10.734;2023-05-10T00:29:22;95350.22;;;14.09;92.57
76998;BME280;65930;48.874;10.734;2023-05-10T00:31:56;95364.47;;;13.99;92.62
76998;BME280;65930;48.874;10.734;2023-05-10T00:34:33;95366.38;;;13.86;93.67
76998;BME280;65930;48.874;10.734;2023-05-10T00:37:03;95351.56;;;13.76;93.03
76998;BME280;65930;48.874;10.734;2023-05-10T00:39:37;95360.53;;;13.96;93.35
76998;BME280;65930;48.874;10.734;2023-05-10T00:42:05;95362.09;;;13.97;92.89
76998;BME280;65930;48.874;10.734;2023-05-10T00:44:34;95362.50;;;13.83;93.40
76998;BME280;65930;48.874;10.734;2023-05-10T00:47:02;95362.13;;;13.81;93.33
76998;BME280;65930;48.874;10.734;2023-05-10T00:49:31;95364.91;;;13.81;93.50
76998;BME280;65930;48.874;10.734;2023-05-10T00:51:59;95358.09;;;13.98;93.48
76998;BME280;65930;48.874;10.734;2023-05-10T00:54:29;95358.44;;;14.00;93.09
76998;BME280;65930;48.874;10.734;2023-05-10T00:56:59;95359.28;;;13.85;93.12
76998;BME280;65930;48.874;10.734;2023-05-10T00:59:35;95353.78;;;13.81;93.55
76998;BME280;65930;48.874;10.734;2023-05-10T01:02:07;95351.19;;;13.90;92.96
76998;BME280;65930;48.874;10.734;2023-05-10T01:04:36;95351.94;;;13.91;92.79
76998;BME280;65930;48.874;10.734;2023-05-10T01:07:07;95348.94;;;13.85;93.36
76998;BME280;65930;48.874;10.734;2023-05-10T01:09:48;95359.44;;;13.78;93.14
76998;BME280;65930;48.874;10.734;2023-05-10T01:12:20;95353.72;;;13.85;93.73
76998;BME280;65930;48.874;10.734;2023-05-10T01:14:49;95363.16;;;13.87;93.20
76998;BME280;65930;48.874;10.734;2023-05-10T01:17:18;95352.03;;;13.87;92.89
76998;BME280;65930;48.874;10.734;2023-05-10T01:19:47;95348.94;;;13.69;93.17
76998;BME280;65930;48.874;10.734;2023-05-10T01:22:41;95350.34;;;13.61;93.19
76998;BME280;65930;48.874;10.734;2023-05-10T01:25:43;95359.34;;;13.81;92.95
76998;BME280;65930;48.874;10.734;2023-05-10T01:28:45;95359.81;;;13.80;92.31
76998;BME280;65930;48.874;10.734;2023-05-10T01:31:33;95362.88;;;13.69;93.10
76998;BME280;65930;48.874;10.734;2023-05-10T01:34:11;95357.28;;;13.85;92.22
76998;BME280;65930;48.874;10.734;2023-05-10T01:36:48;95363.44;;;13.77;92.51
76998;BME280;65930;48.874;10.734;2023-05-10T01:39:28;95359.03;;;13.63;93.41
76998;BME280;65930;48.874;10.734;2023-05-10T01:42:07;95360.97;;;13.66;93.11
76998;BME280;65930;48.874;10.734;2023-05-10T01:44:42;95358.25;;;13.62;93.69
76998;BME280;65930;48.874;10.734;2023-05-10T01:47:15;95371.41;;;13.46;94.29
76998;BME280;65930;48.874;10.734;2023-05-10T01:49:50;95364.91;;;13.52;94.77
76998;BME280;65930;48.874;10.734;2023-05-10T01:52:25;95348.97;;;13.53;94.94
76998;BME280;65930;48.874;10.734;2023-05-10T01:55:01;95361.31;;;13.52;94.79
76998;BME280;65930;48.874;10.734;2023-05-10T01:57:34;95368.00;;;13.54;94.70
76998;BME280;65930;48.874;10.734;2023-05-10T02:00:06;95372.34;;;13.39;95.29
76998;BME280;65930;48.874;10.734;2023-05-10T02:02:39;95375.59;;;13.38;95.96
76998;BME280;65930;48.874;10.734;2023-05-10T02:05:13;95374.84;;;13.01;94.44
76998;BME280;65930;48.874;10.734;2023-05-10T02:07:43;95369.44;;;12.94;94.23
76998;BME280;65930;48.874;10.734;2023-05-10T02:10:14;95369.44;;;12.94;93.56
76998;BME280;65930;48.874;10.734;2023-05-10T02:12:47;95362.63;;;12.79;93.10
76998;BME280;65930;48.874;10.734;2023-05-10T02:15:20;95361.78;;;12.82;93.22
76998;BME280;65930;48.874;10.734;2023-05-10T02:17:49;95366.69;;;12.74;93.65
76998;BME280;65930;48.874;10.734;2023-05-10T02:20:20;95371.25;;;12.85;94.28
76998;BME280;65930;48.874;10.734;2023-05-10T02:22:52;95376.19;;;12.77;93.48
76998;BME280;65930;48.874;10.734;2023-05-10T02:25:23;95376.81;;;12.85;93.63
76998;BME280;65930;48.874;10.734;2023-05-10T02:27:55;95375.88;;;12.91;93.63
76998;BME280;65930;48.874;10.734;2023-05-10T02:30:24;95384.72;;;12.86;94.41
76998;BME280;65930;48.874;10.734;2023-05-10T02:32:57;95372.97;;;12.78;94.70
76998;BME280;65930;48.874;10.734;2023-05-10T02:35:28;95376.63;;;12.75;94.99
76998;BME280;65930;48.874;10.734;2023-05-10T02:37:58;95379.31;;;12.79;94.53
76998;BME280;65930;48.874;10.734;2023-05-10T02:40:27;95390.41;;;12.79;94.35
76998;BME280;65930;48.874;10.734;2023-05-10T02:42:59;95379.06;;;12.73;94.55
76998;BME280;65930;48.874;10.734;2023-05-10T02:45:31;95383.13;;;12.69;95.01
76998;BME280;65930;48.874;10.734;2023-05-10T02:47:59;95381.19;;;12.66;94.58
76998;BME280;65930;48.874;10.734;2023-05-10T02:50:32;95389.31;;;12.57;94.35
76998;BME280;65930;48.874;10.734;2023-05-10T02:53:06;95386.75;;;12.46;94.82
76998;BME280;65930;48.874;10.734;2023-05-10T02:55:38;95390.31;;;12.47;94.22
76998;BME280;65930;48.874;10.734;2023-05-10T02:58:08;95395.97;;;12.43;94.43
76998;BME280;65930;48.874;10.734;2023-05-10T03:00:36;95392.97;;;12.34;94.55
76998;BME280;65930;48.874;10.734;2023-05-10T03:03:06;95400.91;;;12.35;93.71
76998;BME280;65930;48.874;10.734;2023-05-10T03:05:36;95402.31;;;12.24;94.61
76998;BME280;65930;48.874;10.734;2023-05-10T03:08:04;95401.03;;;12.28;94.36
76998;BME280;65930;48.874;10.734;2023-05-10T03:10:40;95401.03;;;12.28;94.31
76998;BME280;65930;48.874;10.734;2023-05-10T03:13:16;95397.91;;;12.26;93.98
76998;BME280;65930;48.874;10.734;2023-05-10T03:15:59;95401.97;;;12.22;94.13
76998;BME280;65930;48.874;10.734;2023-05-10T03:18:43;95406.34;;;12.19;94.83
76998;BME280;65930;48.874;10.734;2023-05-10T03:21:16;95406.34;;;12.19;94.89
76998;BME280;65930;48.874;10.734;2023-05-10T03:23:51;95410.84;;;12.13;95.12
76998;BME280;65930;48.874;10.734;2023-05-10T03:26:26;95418.66;;;12.18;95.08
76998;BME280;65930;48.874;10.734;2023-05-10T03:28:55;95412.47;;;12.11;94.98
76998;BME280;65930;48.874;10.734;2023-05-10T03:31:25;95412.47;;;12.11;94.71
76998;BME280;65930;48.874;10.734;2023-05-10T03:33:53;95418.22;;;12.00;95.37
76998;BME280;65930;48.874;10.734;2023-05-10T03:36:25;95428.13;;;12.01;95.94
76998;BME280;65930;48.874;10.734;2023-05-10T03:38:53;95430.25;;;11.94;96.15
76998;BME280;65930;48.874;10.734;2023-05-10T03:41:21;95431.03;;;11.94;96.12
76998;BME280;65930;48.874;10.734;2023-05-10T03:43:48;95432.66;;;11.91;95.78
76998;BME280;65930;48.874;10.734;2023-05-10T03:46:16;95433.06;;;11.90;96.01
76998;BME280;65930;48.874;10.734;2023-05-10T03:48:44;95443.13;;;11.84;95.33
76998;BME280;65930;48.874;10.734;2023-05-10T03:51:12;95440.03;;;11.78;94.92
76998;BME280;65930;48.874;10.734;2023-05-10T03:53:41;95448.44;;;11.75;94.40
76998;BME280;65930;48.874;10.734;2023-05-10T03:56:09;95443.41;;;11.66;94.29
76998;BME280;65930;48.874;10.734;2023-05-10T03:58:37;95443.66;;;11.72;93.10
76998;BME280;65930;48.874;10.734;2023-05-10T04:01:05;95453.75;;;11.62;94.61
76998;BME280;65930;48.874;10.734;2023-05-10T04:03:33;95448.16;;;11.66;93.98
76998;BME280;65930;48.874;10.734;2023-05-10T04:06:02;95449.13;;;11.56;93.22
76998;BME280;65930;48.874;10.734;2023-05-10T04:08:30;95446.34;;;11.56;93.28
76998;BME280;65930;48.874;10.734;2023-05-10T04:11:06;95458.56;;;11.58;93.18
76998;BME280;65930;48.874;10.734;2023-05-10T04:13:35;95452.72;;;11.53;92.90
76998;BME280;65930;48.874;10.734;2023-05-10T04:16:03;95452.84;;;11.45;93.69
76998;BME280;65930;48.874;10.734;2023-05-10T04:18:31;95459.91;;;11.50;93.61
76998;BME280;65930;48.874;10.734;2023-05-10T04:20:59;95470.50;;;11.55;93.65
76998;BME280;65930;48.874;10.734;2023-05-10T04:23:27;95456.00;;;11.47;94.35
76998;BME280;65930;48.874;10.734;2023-05-10T04:26:00;95467.97;;;11.41;93.50
76998;BME280;65930;48.874;10.734;2023-05-10T04:28:29;95459.34;;;11.35;93.81
76998;BME280;65930;48.874;10.734;2023-05-10T04:31:01;95467.66;;;11.35;93.55
76998;BME280;65930;48.874;10.734;2023-05-10T04:33:29;95456.56;;;11.35;93.83
76998;BME280;65930;48.874;10.734;2023-05-10T04:35:57;95459.75;;;11.34;94.04
76998;BME280;65930;48.874;10.734;2023-05-10T04:38:25;95463.75;;;11.33;94.17
76998;BME280;65930;48.874;10.734;2023-05-10T04:40:53;95459.94;;;11.23;93.43
76998;BME280;65930;48.874;10.734;2023-05-10T04:43:21;95465.47;;;11.23;93.80
76998;BME280;65930;48.874;10.734;2023-05-10T04:45:50;95465.47;;;11.23;94.11
76998;BME280;65930;48.874;10.734;2023-05-10T04:48:18;95468.97;;;11.27;94.13
76998;BME280;65930;48.874;10.734;2023-05-10T04:50:46;95473.41;;;11.21;93.92
76998;BME280;65930;48.874;10.734;2023-05-10T04:53:14;95472.22;;;11.22;94.11
76998;BME280;65930;48.874;10.734;2023-05-10T04:55:42;95474.13;;;11.25;94.40
76998;BME280;65930;48.874;10.734;2023-05-10T04:58:10;95480.94;;;11.21;94.27
76998;BME280;65930;48.874;10.734;2023-05-10T05:00:37;95478.41;;;11.30;93.77
76998;BME280;65930;48.874;10.734;2023-05-10T05:03:07;95470.09;;;11.30;94.07
76998;BME280;65930;48.874;10.734;2023-05-10T05:05:35;95481.63;;;11.28;94.00
76998;BME280;65930;48.874;10.734;2023-05-10T05:08:03;95478.06;;;11.28;94.14
76998;BME280;65930;48.874;10.734;2023-05-10T05:10:31;95480.38;;;11.33;93.62
76998;BME280;65930;48.874;10.734;2023-05-10T05:12:59;95489.03;;;11.35;94.20
76998;BME280;65930;48.874;10.734;2023-05-10T05:15:27;95499.97;;;11.45;93.91
76998;BME280;65930;48.874;10.734;2023-05-10T05:17:56;95494.81;;;11.47;93.69
76998;BME280;65930;48.874;10.734;2023-05-10T05:20:25;95504.22;;;11.54;93.73
76998;BME280;65930;48.874;10.734;2023-05-10T05:22:53;95503.81;;;11.55;93.32
76998;BME280;65930;48.874;10.734;2023-05-10T05:25:21;95504.06;;;11.64;93.28
76998;BME280;65930;48.874;10.734;2023-05-10T05:27:49;95516.34;;;11.63;92.88
76998;BME280;65930;48.874;10.734;2023-05-10T05:30:17;95511.97;;;11.66;93.14
76998;BME280;65930;48.874;10.734;2023-05-10T05:32:45;95511.50;;;11.71;92.82
76998;BME280;65930;48.874;10.734;2023-05-10T05:35:13;95516.28;;;11.67;92.37
76998;BME280;65930;48.874;10.734;2023-05-10T05:37:43;95523.56;;;11.57;91.74
76998;BME280;65930;48.874;10.734;2023-05-10T05:40:12;95522.69;;;11.64;92.65
76998;BME280;65930;48.874;10.734;2023-05-10T05:42:40;95524.97;;;11.69;93.04
76998;BME280;65930;48.874;10.734;2023-05-10T05:45:09;95530.59;;;11.65;92.57
76998;BME280;65930;48.874;10.734;2023-05-10T05:47:39;95525.88;;;11.62;92.23
76998;BME280;65930;48.874;10.734;2023-05-10T05:50:10;95529.88;;;11.61;92.83
76998;BME280;65930;48.874;10.734;2023-05-10T05:52:38;95534.97;;;11.63;91.93
76998;BME280;65930;48.874;10.734;2023-05-10T05:55:08;95529.44;;;11.63;92.64
76998;BME280;65930;48.874;10.734;2023-05-10T05:57:39;95529.81;;;11.65;92.33
76998;BME280;65930;48.874;10.734;2023-05-10T06:00:10;95536.16;;;11.65;92.04
76998;BME280;65930;48.874;10.734;2023-05-10T06:02:38;95544.69;;;11.78;92.35
76998;BME280;65930;48.874;10.734;2023-05-10T06:05:07;95533.13;;;11.83;91.90
76998;BME280;65930;48.874;10.734;2023-05-10T06:07:35;95542.56;;;11.85;91.65
76998;BME280;65930;48.874;10.734;2023-05-10T06:10:04;95540.59;;;11.86;92.05
76998;BME280;65930;48.874;10.734;2023-05-10T06:12:33;95545.66;;;11.91;92.54
76998;BME280;65930;48.874;10.734;2023-05-10T06:15:01;95551.47;;;12.00;91.68
76998;BME280;65930;48.874;10.734;2023-05-10T06:17:29;95551.53;;;11.97;91.03
76998;BME280;65930;48.874;10.734;2023-05-10T06:19:57;95551.13;;;11.98;92.32
76998;BME280;65930;48.874;10.734;2023-05-10T06:22:25;95553.03;;;12.01;92.08
76998;BME280;65930;48.874;10.734;2023-05-10T06:24:53;95551.91;;;11.99;91.97
76998;BME280;65930;48.874;10.734;2023-05-10T06:27:21;95554.31;;;11.97;91.72
76998;BME280;65930;48.874;10.734;2023-05-10T06:29:50;95557.88;;;11.97;91.45
76998;BME280;65930;48.874;10.734;2023-05-10T06:32:35;95560.75;;;12.13;90.79
76998;BME280;65930;48.874;10.734;2023-05-10T06:35:03;95562.88;;;12.06;90.56
76998;BME280;65930;48.874;10.734;2023-05-10T06:37:31;95573.88;;;12.13;90.82
76998;BME280;65930;48.874;10.734;2023-05-10T06:39:59;95575.72;;;12.19;91.10
76998;BME280;65930;48.874;10.734;2023-05-10T06:42:27;95576.09;;;12.21;90.88
76998;BME280;65930;48.874;10.734;2023-05-10T06:44:56;95576.53;;;12.20;90.01
76998;BME280;65930;48.874;10.734;2023-05-10T06:47:24;95572.66;;;12.14;89.48
76998;BME280;65930;48.874;10.734;2023-05-10T06:49:52;95580.56;;;12.15;90.27
76998;BME280;65930;48.874;10.734;2023-05-10T06:52:20;95575.88;;;12.12;90.18
76998;BME280;65930;48.874;10.734;2023-05-10T06:54:48;95580.97;;;12.14;89.15
76998;BME280;65930;48.874;10.734;2023-05-10T06:57:16;95586.34;;;12.24;88.66
76998;BME280;65930;48.874;10.734;2023-05-10T06:59:59;95579.59;;;12.25;89.15
76998;BME280;65930;48.874;10.734;2023-05-10T07:02:27;95580.50;;;12.19;88.31
76998;BME280;65930;48.874;10.734;2023-05-10T07:04:55;95587.63;;;12.20;89.13
76998;BME280;65930;48.874;10.734;2023-05-10T07:07:28;95579.22;;;12.23;88.87
76998;BME280;65930;48.874;10.734;2023-05-10T07:09:56;95588.41;;;12.20;89.25
76998;BME280;65930;48.874;10.734;2023-05-10T07:12:24;95582.22;;;12.13;89.43
76998;BME280;65930;48.874;10.734;2023-05-10T07:14:52;95586.72;;;12.03;92.06
76998;BME280;65930;48.874;10.734;2023-05-10T07:17:22;95592.63;;;12.05;92.37
76998;BME280;65930;48.874;10.734;2023-05-10T07:19:50;95597.44;;;12.01;92.47
76998;BME280;65930;48.874;10.734;2023-05-10T07:22:18;95591.50;;;12.03;92.14
76998;BME280;65930;48.874;10.734;2023-05-10T07:24:46;95595.41;;;12.05;91.73
76998;BME280;65930;48.874;10.734;2023-05-10T07:27:13;95603.63;;;12.12;91.65
76998;BME280;65930;48.874;10.734;2023-05-10T07:29:41;95604.44;;;12.09;91.48
76998;BME280;65930;48.874;10.734;2023-05-10T07:32:09;95601.19;;;12.14;91.82
76998;BME280;65930;48.874;10.734;2023-05-10T07:34:41;95604.44;;;12.09;91.88
76998;BME280;65930;48.874;10.734;2023-05-10T07:37:09;95613.50;;;12.13;92.39
76998;BME280;65930;48.874;10.734;2023-05-10T07:39:39;95603.81;;;12.25;92.35
76998;BME280;65930;48.874;10.734;2023-05-10T07:42:07;95610.38;;;12.34;90.38
76998;BME280;65930;48.874;10.734;2023-05-10T07:44:35;95612.84;;;12.52;91.09
76998;BME280;65930;48.874;10.734;2023-05-10T07:47:03;95611.72;;;12.50;90.38
76998;BME280;65930;48.874;10.734;2023-05-10T07:49:31;95616.59;;;12.42;90.35
76998;BME280;65930;48.874;10.734;2023-05-10T07:52:01;95603.81;;;12.48;90.96
76998;BME280;65930;48.874;10.734;2023-05-10T07:54:30;95610.50;;;12.51;90.45
76998;BME280;65930;48.874;10.734;2023-05-10T07:56:58;95617.28;;;12.50;88.68
76998;BME280;65930;48.874;10.734;2023-05-10T07:59:26;95608.69;;;12.64;88.19
76998;BME280;65930;48.874;10.734;2023-05-10T08:01:54;95608.78;;;12.80;86.59
76998;BME280;65930;48.874;10.734;2023-05-10T08:04:22;95601.59;;;12.83;84.95
76998;BME280;65930;48.874;10.734;2023-05-10T08:06:50;95608.72;;;13.03;85.45
76998;BME280;65930;48.874;10.734;2023-05-10T08:09:20;95607.44;;;13.08;84.22
76998;BME280;65930;48.874;10.734;2023-05-10T08:11:50;95616.81;;;13.17;84.63
76998;BME280;65930;48.874;10.734;2023-05-10T08:14:27;95603.91;;;13.27;84.04
76998;BME280;65930;48.874;10.734;2023-05-10T08:16:56;95615.03;;;13.27;81.03
76998;BME280;65930;48.874;10.734;2023-05-10T08:19:23;95615.47;;;13.45;81.68
76998;BME280;65930;48.874;10.734;2023-05-10T08:21:52;95619.03;;;13.46;82.41
76998;BME280;65930;48.874;10.734;2023-05-10T08:24:23;95616.41;;;13.39;80.38
76998;BME280;65930;48.874;10.734;2023-05-10T08:26:51;95614.63;;;13.48;80.88
76998;BME280;65930;48.874;10.734;2023-05-10T08:29:21;95617.00;;;13.66;78.64
76998;BME280;65930;48.874;10.734;2023-05-10T08:31:53;95629.75;;;13.83;79.71
76998;BME280;65930;48.874;10.734;2023-05-10T08:34:21;95626.50;;;14.21;78.75
76998;BME280;65930;48.874;10.734;2023-05-10T08:36:49;95633.38;;;14.32;77.93
76998;BME280;65930;48.874;10.734;2023-05-10T08:39:17;95627.97;;;14.25;77.40
76998;BME280;65930;48.874;10.734;2023-05-10T08:42:02;95625.78;;;14.17;75.74
76998;BME280;65930;48.874;10.734;2023-05-10T08:44:32;95632.22;;;13.97;74.97
76998;BME280;65930;48.874;10.734;2023-05-10T08:47:05;95628.44;;;14.40;75.15
76998;BME280;65930;48.874;10.734;2023-05-10T08:49:34;95624.84;;;14.72;73.23
76998;BME280;65930;48.874;10.734;2023-05-10T08:52:04;95633.63;;;14.70;70.73
76998;BME280;65930;48.874;10.734;2023-05-10T08:54:35;95628.63;;;14.94;71.14
76998;BME280;65930;48.874;10.734;2023-05-10T08:57:05;95633.63;;;14.86;69.63
76998;BME280;65930;48.874;10.734;2023-05-10T08:59:33;95626.69;;;14.78;70.28
76998;BME280;65930;48.874;10.734;2023-05-10T09:02:03;95633.09;;;14.75;70.61
76998;BME280;65930;48.874;10.734;2023-05-10T09:04:32;95632.88;;;14.53;71.67
76998;BME280;65930;48.874;10.734;2023-05-10T09:07:00;95627.66;;;14.56;73.01
76998;BME280;65930;48.874;10.734;2023-05-10T09:09:28;95635.72;;;14.34;71.34
76998;BME280;65930;48.874;10.734;2023-05-10T09:11:56;95632.44;;;14.55;73.32
76998;BME280;65930;48.874;10.734;2023-05-10T09:14:26;95637.13;;;14.42;72.22
76998;BME280;65930;48.874;10.734;2023-05-10T09:16:55;95617.09;;;14.47;72.33
76998;BME280;65930;48.874;10.734;2023-05-10T09:19:24;95636.06;;;14.84;70.42
76998;BME280;65930;48.874;10.734;2023-05-10T09:21:54;95632.56;;;14.96;72.39
76998;BME280;65930;48.874;10.734;2023-05-10T09:24:25;95642.19;;;14.63;70.25
76998;BME280;65930;48.874;10.734;2023-05-10T09:26:56;95632.09;;;14.53;71.29
76998;BME280;65930;48.874;10.734;2023-05-10T09:29:26;95645.25;;;14.36;71.83
76998;BME280;65930;48.874;10.734;2023-05-10T09:31:54;95636.28;;;14.45;71.65
76998;BME280;65930;48.874;10.734;2023-05-10T10:24:44;95647.53;;;15.03;69.15
76998;BME280;65930;48.874;10.734;2023-05-10T10:27:21;95650.78;;;15.01;71.12
76998;BME280;65930;48.874;10.734;2023-05-10T10:30:02;95640.09;;;14.67;71.85
76998;BME280;65930;48.874;10.734;2023-05-10T10:32:42;95640.16;;;14.15;72.45
76998;BME280;65930;48.874;10.734;2023-05-10T10:35:17;95640.06;;;14.19;74.70
76998;BME280;65930;48.874;10.734;2023-05-10T10:37:47;95643.38;;;14.14;74.68
76998;BME280;65930;48.874;10.734;2023-05-10T10:40:26;95642.50;;;14.17;74.12
76998;BME280;65930;48.874;10.734;2023-05-10T10:42:57;95643.91;;;14.25;74.64
76998;BME280;65930;48.874;10.734;2023-05-10T10:45:26;95635.91;;;14.43;75.14
76998;BME280;65930;48.874;10.734;2023-05-10T10:48:21;95642.88;;;14.35;73.02
76998;BME280;65930;48.874;10.734;2023-05-10T10:50:59;95652.78;;;14.20;71.79
76998;BME280;65930;48.874;10.734;2023-05-10T10:53:27;95650.94;;;14.13;73.03
76998;BME280;65930;48.874;10.734;2023-05-10T10:56:06;95647.19;;;14.03;74.07
76998;BME280;65930;48.874;10.734;2023-05-10T10:58:37;95657.28;;;13.97;74.40
76998;BME280;65930;48.874;10.734;2023-05-10T11:01:11;95650.13;;;13.96;74.14
76998;BME280;65930;48.874;10.734;2023-05-10T11:03:39;95649.19;;;14.03;74.53
76998;BME280;65930;48.874;10.734;2023-05-10T11:06:10;95652.31;;;14.05;74.73
76998;BME280;65930;48.874;10.734;2023-05-10T11:08:42;95655.19;;;14.01;73.65
76998;BME280;65930;48.874;10.734;2023-05-10T11:11:14;95658.06;;;13.98;74.03
76998;BME280;65930;48.874;10.734;2023-05-10T11:13:44;95652.50;;;13.98;73.66
76998;BME280;65930;48.874;10.734;2023-05-10T11:16:18;95655.22;;;14.18;73.94
76998;BME280;65930;48.874;10.734;2023-05-10T11:19:09;95651.56;;;14.21;73.38
76998;BME280;65930;48.874;10.734;2023-05-10T11:21:49;95647.56;;;14.22;73.58
76998;BME280;65930;48.874;10.734;2023-05-10T11:24:19;95645.16;;;14.72;73.85
76998;BME280;65930;48.874;10.734;2023-05-10T11:26:50;95643.25;;;14.53;72.98
76998;BME280;65930;48.874;10.734;2023-05-10T11:29:27;95644.00;;;14.37;73.32
76998;BME280;65930;48.874;10.734;2023-05-10T11:31:57;95640.44;;;14.53;73.29
76998;BME280;65930;48.874;10.734;2023-05-10T11:34:26;95648.09;;;14.81;73.66
76998;BME280;65930;48.874;10.734;2023-05-10T11:36:56;95634.59;;;14.80;72.71
76998;BME280;65930;48.874;10.734;2023-05-10T11:39:26;95639.47;;;14.76;73.06
76998;BME280;65930;48.874;10.734;2023-05-10T11:41:57;95639.56;;;14.72;72.48
76998;BME280;65930;48.874;10.734;2023-05-10T11:44:29;95639.31;;;14.67;71.58
76998;BME280;65930;48.874;10.734;2023-05-10T11:47:01;95642.47;;;14.69;73.66
76998;BME280;65930;48.874;10.734;2023-05-10T11:49:30;95656.63;;;14.42;72.52
76998;BME280;65930;48.874;10.734;2023-05-10T11:52:05;95656.53;;;14.29;71.33
76998;BME280;65930;48.874;10.734;2023-05-10T11:54:34;95657.69;;;14.48;71.36
76998;BME280;65930;48.874;10.734;2023-05-10T11:57:04;95659.97;;;14.37;69.92
76998;BME280;65930;48.874;10.734;2023-05-10T11:59:32;95655.88;;;14.05;70.86
76998;BME280;65930;48.874;10.734;2023-05-10T12:02:00;95664.97;;;14.26;72.09
76998;BME280;65930;48.874;10.734;2023-05-10T12:04:30;95656.44;;;14.33;72.51
76998;BME280;65930;48.874;10.734;2023-05-10T12:06:58;95665.66;;;14.30;71.69
76998;BME280;65930;48.874;10.734;2023-05-10T12:09:26;95661.13;;;14.20;71.75
76998;BME280;65930;48.874;10.734;2023-05-10T12:12:15;95675.06;;;14.20;72.19
76998;BME280;65930;48.874;10.734;2023-05-10T12:14:43;95668.97;;;14.25;72.88
76998;BME280;65930;48.874;10.734;2023-05-10T12:17:12;95678.34;;;14.15;72.80
76998;BME280;65930;48.874;10.734;2023-05-10T12:19:41;95671.94;;;14.18;74.32
76998;BME280;65930;48.874;10.734;2023-05-10T12:22:10;95673.34;;;14.26;74.28
76998;BME280;65930;48.874;10.734;2023-05-10T12:24:38;95675.50;;;14.34;74.30
76998;BME280;65930;48.874;10.734;2023-05-10T12:27:08;95672.16;;;14.43;74.57
76998;BME280;65930;48.874;10.734;2023-05-10T12:29:41;95681.50;;;14.17;71.27
76998;BME280;65930;48.874;10.734;2023-05-10T12:32:11;95692.03;;;14.09;69.19
76998;BME280;65930;48.874;10.734;2023-05-10T12:34:39;95680.66;;;14.00;69.78
76998;BME280;65930;48.874;10.734;2023-05-10T12:37:07;95684.41;;;13.93;70.31
76998;BME280;65930;48.874;10.734;2023-05-10T12:39:39;95691.69;;;13.87;70.96
76998;BME280;65930;48.874;10.734;2023-05-10T12:42:10;95689.47;;;13.98;71.36
76998;BME280;65930;48.874;10.734;2023-05-10T12:44:40;95693.19;;;13.92;70.20
76998;BME280;65930;48.874;10.734;2023-05-10T12:47:11;95688.00;;;13.74;70.67
76998;BME280;65930;48.874;10.734;2023-05-10T12:49:39;95687.84;;;13.81;71.08
76998;BME280;65930;48.874;10.734;2023-05-10T12:52:07;95698.22;;;13.81;71.16
76998;BME280;65930;48.874;10.734;2023-05-10T12:54:34;95694.91;;;13.86;71.19
76998;BME280;65930;48.874;10.734;2023-05-10T12:57:02;95700.44;;;14.05;72.42
76998;BME280;65930;48.874;10.734;2023-05-10T12:59:30;95692.34;;;13.95;71.87
76998;BME280;65930;48.874;10.734;2023-05-10T13:02:01;95699.75;;;13.82;72.75
76998;BME280;65930;48.874;10.734;2023-05-10T13:04:29;95699.06;;;13.78;73.54
76998;BME280;65930;48.874;10.734;2023-05-10T13:06:57;95700.03;;;13.87;75.22
76998;BME280;65930;48.874;10.734;2023-05-10T13:09:26;95698.66;;;13.95;74.53
76998;BME280;65930;48.874;10.734;2023-05-10T13:11:55;95696.19;;;13.81;75.25
76998;BME280;65930;48.874;10.734;2023-05-10T13:14:24;95705.41;;;13.78;74.92
76998;BME280;65930;48.874;10.734;2023-05-10T13:16:52;95692.69;;;13.77;75.12
76998;BME280;65930;48.874;10.734;2023-05-10T13:19:21;95701.25;;;13.86;74.70
76998;BME280;65930;48.874;10.734;2023-05-10T13:21:49;95699.53;;;13.92;73.60
76998;BME280;65930;48.874;10.734;2023-05-10T13:24:18;95695.88;;;13.95;74.89
76998;BME280;65930;48.874;10.734;2023-05-10T13:26:46;95695.00;;;14.18;74.90
76998;BME280;65930;48.874;10.734;2023-05-10T13:29:17;95692.97;;;14.38;72.99
76998;BME280;65930;48.874;10.734;2023-05-10T13:31:45;95688.66;;;14.34;73.46
76998;BME280;65930;48.874;10.734;2023-05-10T13:34:13;95684.63;;;14.54;73.84
76998;BME280;65930;48.874;10.734;2023-05-10T13:36:43;95685.13;;;14.49;76.05
76998;BME280;65930;48.874;10.734;2023-05-10T13:39:11;95693.66;;;14.42;76.34
76998;BME280;65930;48.874;10.734;2023-05-10T13:41:39;95691.44;;;14.34;76.28
76998;BME280;65930;48.874;10.734;2023-05-10T13:44:07;95696.31;;;14.14;77.00
76998;BME280;65930;48.874;10.734;2023-05-10T13:46:37;95681.81;;;14.02;80.20
76998;BME280;65930;48.874;10.734;2023-05-10T13:49:05;95691.06;;;13.80;80.77
76998;BME280;65930;48.874;10.734;2023-05-10T13:51:34;95687.13;;;13.77;79.14
76998;BME280;65930;48.874;10.734;2023-05-10T13:54:03;95684.00;;;13.95;80.92
76998;BME280;65930;48.874;10.734;2023-05-10T13:56:31;95676.56;;;13.88;79.96
76998;BME280;65930;48.874;10.734;2023-05-10T13:59:00;95675.78;;;13.88;80.96